Time;durP1;ratioP1;P1;durP2;ratioP2;P2;SDS_P1;SDS_P2;PMS_P1;PMS_P2;Temp;Humidity;BMP_temperature;BMP_pressure;BME280_temperature;BME280_humidity;BME280_pressure;Samples;Min_cycle;Max_cycle;Signal;HPM_P1;HPM_P2
2022/03/25 00:02:15;;;;;;;12.27;6.28;;;;;;;10.34;40.31;101239.63;5113760;28;20027;-72
2022/03/25 00:04:40;;;;;;;10.73;6.43;;;;;;;10.29;39.75;101233.75;5111628;28;20035;-73
2022/03/25 00:07:07;;;;;;;17.58;6.70;;;;;;;10.23;40.04;101231.50;5111300;28;20027;-72
2022/03/25 00:09:33;;;;;;;10.65;6.03;;;;;;;10.25;40.38;101241.16;5110058;28;20061;-73
2022/03/25 00:11:59;;;;;;;12.35;6.82;;;;;;;10.20;39.97;101240.63;5110045;28;20076;-72
2022/03/25 00:14:24;;;;;;;14.15;7.07;;;;;;;10.11;40.11;101224.34;5110687;28;20039;-72
2022/03/25 00:16:50;;;;;;;14.05;6.85;;;;;;;10.11;40.22;101229.69;5110409;28;20038;-72
2022/03/25 00:19:15;;;;;;;12.63;7.03;;;;;;;10.08;40.80;101233.47;5109663;28;20019;-72
2022/03/25 00:21:40;;;;;;;11.80;6.35;;;;;;;10.11;40.28;101243.09;5109156;28;20031;-72
2022/03/25 00:24:07;;;;;;;11.90;6.78;;;;;;;10.08;40.56;101241.50;5109475;28;20027;-72
2022/03/25 00:26:33;;;;;;;12.75;6.30;;;;;;;10.04;40.65;101237.31;5111160;28;20020;-75
2022/03/25 00:28:58;;;;;;;9.30;6.57;;;;;;;9.99;40.77;101226.03;5110366;28;20057;-75
2022/03/25 00:31:24;;;;;;;16.08;7.40;;;;;;;10.01;40.96;101234.84;5110204;28;20031;-75
2022/03/25 00:33:49;;;;;;;10.10;6.82;;;;;;;9.95;40.63;101226.34;5109852;28;20024;-75
2022/03/25 00:36:17;;;;;;;13.32;6.50;;;;;;;9.99;40.89;101228.72;5108771;28;20363;-75
2022/03/25 00:38:44;;;;;;;11.93;6.45;;;;;;;9.91;40.72;101217.69;5110089;28;20093;-75
2022/03/25 00:41:11;;;;;;;13.30;6.80;;;;;;;9.93;41.19;101223.78;5110063;28;20023;-75
2022/03/25 00:43:37;;;;;;;11.07;6.57;;;;;;;9.92;40.83;101218.53;5109408;28;20036;-75
2022/03/25 00:46:02;;;;;;;15.77;6.80;;;;;;;9.96;41.27;101222.72;5108139;28;20164;-74
2022/03/25 00:48:28;;;;;;;11.25;6.13;;;;;;;9.87;40.81;101218.84;5110270;28;20036;-75
2022/03/25 00:50:54;;;;;;;13.15;7.03;;;;;;;9.90;41.06;101224.00;5109224;28;20535;-74
2022/03/25 00:53:20;;;;;;;15.68;7.10;;;;;;;9.93;40.89;101226.47;5109218;28;20028;-75
2022/03/25 00:55:45;;;;;;;16.98;7.68;;;;;;;9.91;41.02;101220.38;5109693;28;20089;-74
2022/03/25 00:58:11;;;;;;;11.75;7.35;;;;;;;9.87;41.54;101221.53;5109288;28;20114;-75
2022/03/25 01:00:37;;;;;;;11.13;6.95;;;;;;;9.85;41.43;101219.94;5107772;28;20034;-75
2022/03/25 01:03:03;;;;;;;10.30;6.85;;;;;;;9.91;41.61;101230.22;5110650;28;20027;-75
2022/03/25 01:05:29;;;;;;;14.60;7.38;;;;;;;9.86;41.25;101222.50;5110655;28;20046;-75
2022/03/25 01:07:55;;;;;;;16.15;7.65;;;;;;;9.90;41.21;101229.34;5110660;28;20032;-74
2022/03/25 01:10:23;;;;;;;13.88;7.60;;;;;;;9.86;41.74;101216.31;5106750;28;20034;-75
2022/03/25 01:12:48;;;;;;;16.35;8.05;;;;;;;9.83;41.70;101221.88;5112006;28;20034;-75
2022/03/25 01:15:14;;;;;;;15.60;8.05;;;;;;;9.81;41.52;101213.94;5113146;28;20122;-75
2022/03/25 01:17:39;;;;;;;13.65;7.88;;;;;;;9.88;41.77;101220.59;5113500;28;20032;-75
2022/03/25 01:20:06;;;;;;;12.20;7.55;;;;;;;9.86;41.89;101217.16;5112995;28;20479;-75
2022/03/25 01:22:31;;;;;;;16.45;8.45;;;;;;;9.81;41.75;101205.03;5113102;28;20494;-75
2022/03/25 01:24:57;;;;;;;14.18;7.75;;;;;;;9.84;41.74;101215.56;5112893;28;20019;-75
2022/03/25 01:27:22;;;;;;;15.73;7.60;;;;;;;9.80;41.85;101211.38;5112532;28;20051;-75
2022/03/25 01:29:49;;;;;;;14.27;8.57;;;;;;;9.79;41.93;101207.84;5112578;28;20028;-75
2022/03/25 01:32:16;;;;;;;14.25;8.27;;;;;;;9.81;41.81;101215.75;5114257;28;20032;-74
2022/03/25 01:34:42;;;;;;;14.38;8.15;;;;;;;9.85;42.11;101225.28;5112631;28;20134;-75
2022/03/25 01:37:07;;;;;;;15.60;7.43;;;;;;;9.70;42.23;101203.13;5114025;28;20103;-75
2022/03/25 01:39:33;;;;;;;14.27;8.18;;;;;;;9.74;42.42;101219.84;5114223;28;20051;-75
2022/03/25 01:41:59;;;;;;;15.82;8.27;;;;;;;9.74;42.70;101223.34;5113893;28;20031;-75
2022/03/25 01:44:26;;;;;;;14.70;7.90;;;;;;;9.71;42.44;101212.88;5112445;28;20035;-75
2022/03/25 01:46:53;;;;;;;14.38;8.93;;;;;;;9.66;42.53;101208.78;5113870;28;20028;-75
2022/03/25 01:49:20;;;;;;;17.95;8.75;;;;;;;9.75;42.29;101217.06;5112750;28;20088;-75
2022/03/25 01:51:51;;;;;;;13.13;8.43;;;;;;;9.69;42.15;101214.81;5113805;28;20046;-75
2022/03/25 01:54:26;;;;;;;18.83;8.38;;;;;;;9.65;42.42;101213.31;5113903;28;20023;-75
2022/03/25 01:57:07;;;;;;;13.68;8.13;;;;;;;9.66;42.50;101220.38;5112325;28;20062;-75
2022/03/25 01:59:33;;;;;;;15.00;8.50;;;;;;;9.69;42.77;101221.97;5112130;28;20424;-75
2022/03/25 02:02:01;;;;;;;14.82;8.32;;;;;;;9.66;42.67;101232.91;5112303;28;20109;-75
2022/03/25 02:04:27;;;;;;;19.00;8.57;;;;;;;9.62;42.96;101226.03;5112387;28;20084;-75
2022/03/25 02:06:53;;;;;;;18.50;9.00;;;;;;;9.55;43.16;101214.06;5112065;28;20023;-74
2022/03/25 02:09:18;;;;;;;18.20;9.20;;;;;;;9.56;42.58;101221.09;5113747;28;20208;-75
2022/03/25 02:11:44;;;;;;;19.55;9.40;;;;;;;9.58;43.05;101228.09;5111900;28;20111;-75
2022/03/25 02:14:11;;;;;;;14.07;8.52;;;;;;;9.49;42.85;101226.06;5113208;28;20023;-75
2022/03/25 02:16:44;;;;;;;15.95;8.90;;;;;;;9.53;42.92;101240.06;5113363;28;20102;-75
2022/03/25 02:19:12;;;;;;;16.23;9.05;;;;;;;9.46;42.95;101234.28;5112092;28;20131;-75
2022/03/25 02:21:41;;;;;;;14.75;8.60;;;;;;;9.44;43.24;101238.88;5113338;28;20024;-74
2022/03/25 02:24:09;;;;;;;15.50;8.88;;;;;;;9.35;43.60;101236.81;5111923;28;20028;-74
2022/03/25 02:26:36;;;;;;;16.02;9.43;;;;;;;9.29;43.37;101234.59;5111827;28;20070;-75
2022/03/25 02:29:03;;;;;;;16.92;8.63;;;;;;;9.25;43.42;101249.13;5111431;28;20068;-74
2022/03/25 02:31:28;;;;;;;15.30;9.18;;;;;;;9.18;43.71;101247.81;5112897;28;20036;-75
2022/03/25 02:34:01;;;;;;;18.20;10.55;;;;;;;9.08;44.12;101242.25;5111554;28;20031;-75
2022/03/25 02:36:40;;;;;;;20.17;10.88;;;;;;;8.94;44.44;101244.13;5111450;28;20043;-75
2022/03/25 02:39:07;;;;;;;22.05;10.43;;;;;;;8.87;44.10;101250.84;5111597;28;20030;-75
2022/03/25 02:41:33;;;;;;;17.25;10.35;;;;;;;8.64;44.63;101240.81;5112771;28;20051;-75
2022/03/25 02:43:59;;;;;;;18.27;9.93;;;;;;;8.54;44.84;101242.31;5112834;28;20062;-74
2022/03/25 02:46:25;;;;;;;21.35;10.18;;;;;;;8.45;45.41;101254.47;5113173;28;20035;-75
2022/03/25 02:48:50;;;;;;;19.60;10.50;;;;;;;8.32;45.37;101258.88;5112746;28;20491;-75
2022/03/25 02:51:16;;;;;;;20.17;10.77;;;;;;;8.08;45.57;101248.88;5110947;28;20027;-75
2022/03/25 02:53:41;;;;;;;24.15;11.55;;;;;;;8.01;46.23;101259.09;5111306;28;20032;-75
2022/03/25 02:56:07;;;;;;;24.65;11.85;;;;;;;7.87;46.55;101253.72;5109993;28;20019;-75
2022/03/25 02:58:32;;;;;;;24.02;11.65;;;;;;;7.76;47.08;101266.03;5110803;28;20209;-75
2022/03/25 03:00:58;;;;;;;24.83;11.98;;;;;;;7.66;47.01;101275.53;5112126;28;20498;-75
2022/03/25 03:03:24;;;;;;;22.98;11.90;;;;;;;7.46;47.36;101263.41;5110678;28;20032;-75
2022/03/25 03:05:49;;;;;;;21.25;12.07;;;;;;;7.26;47.61;101238.88;5112536;28;20506;-74
2022/03/25 03:08:15;;;;;;;23.80;12.18;;;;;;;7.24;47.64;101259.44;5112040;28;20028;-74
2022/03/25 03:10:41;;;;;;;28.20;12.90;;;;;;;7.12;48.09;101269.00;5112120;28;20131;-74
2022/03/25 03:13:07;;;;;;;21.77;11.05;;;;;;;7.03;48.49;101274.03;5111205;28;20019;-74
2022/03/25 03:15:32;;;;;;;23.35;11.00;;;;;;;6.97;48.33;101278.75;5110499;28;20505;-74
2022/03/25 03:17:58;;;;;;;21.50;11.10;;;;;;;6.82;48.85;101277.00;5110343;28;20032;-75
2022/03/25 03:20:24;;;;;;;25.80;11.50;;;;;;;6.65;48.76;101266.41;5111777;28;20038;-75
2022/03/25 03:22:50;;;;;;;28.23;13.65;;;;;;;6.61;49.08;101283.53;5111686;28;20024;-74
2022/03/25 03:25:16;;;;;;;20.63;10.98;;;;;;;6.41;49.95;101261.59;5109590;28;20035;-75
2022/03/25 03:27:42;;;;;;;22.15;10.98;;;;;;;6.32;49.64;101268.31;5110230;28;20048;-74
2022/03/25 03:30:09;;;;;;;25.60;11.55;;;;;;;6.27;50.02;101281.03;5111427;28;20047;-75
2022/03/25 03:32:36;;;;;;;22.30;11.10;;;;;;;6.17;49.93;101273.63;5111484;28;20034;-74
2022/03/25 03:35:03;;;;;;;19.85;10.65;;;;;;;6.01;50.61;101265.63;5111149;28;20030;-74
2022/03/25 03:37:29;;;;;;;22.77;11.40;;;;;;;5.97;50.77;101266.69;5106182;28;20527;-74
2022/03/25 03:39:54;;;;;;;21.33;11.27;;;;;;;5.90;50.95;101275.97;5110626;28;20106;-74
2022/03/25 03:42:20;;;;;;;21.45;10.25;;;;;;;5.87;51.08;101285.94;5111507;28;20122;-74
2022/03/25 03:44:46;;;;;;;20.35;10.55;;;;;;;5.71;51.31;101277.00;5111556;28;20053;-75
2022/03/25 03:47:11;;;;;;;19.27;10.57;;;;;;;5.66;51.22;101289.69;5108021;28;20031;-74
2022/03/25 03:49:38;;;;;;;20.85;10.48;;;;;;;5.60;51.62;101290.88;5108497;28;20448;-74
2022/03/25 03:52:04;;;;;;;21.27;10.27;;;;;;;5.56;51.56;101299.94;5110722;28;20132;-74
2022/03/25 03:54:33;;;;;;;20.02;9.48;;;;;;;5.49;51.69;101292.34;5108885;28;20487;-75
2022/03/25 03:56:59;;;;;;;17.33;9.75;;;;;;;5.40;51.82;101291.03;5107113;28;20471;-75
2022/03/25 03:59:24;;;;;;;22.40;10.23;;;;;;;5.33;51.99;101296.75;5111475;28;20028;-74
2022/03/25 04:01:50;;;;;;;19.58;9.73;;;;;;;5.18;52.24;101290.41;5109862;28;20072;-74
2022/03/25 04:04:16;;;;;;;22.80;10.70;;;;;;;5.13;52.65;101302.22;5111235;28;20027;-74
2022/03/25 04:06:41;;;;;;;22.38;10.85;;;;;;;5.02;52.61;101299.19;5111101;28;20035;-74
2022/03/25 04:09:07;;;;;;;23.05;11.20;;;;;;;4.96;53.10;101305.69;5111053;28;20103;-74
2022/03/25 04:11:32;;;;;;;21.02;10.45;;;;;;;4.91;53.49;101313.03;5109893;28;20055;-74
2022/03/25 04:13:57;;;;;;;20.83;9.88;;;;;;;4.80;54.11;101301.22;5109642;28;20023;-74
2022/03/25 04:16:23;;;;;;;21.90;9.98;;;;;;;4.77;54.10;101312.00;5109920;28;20032;-74
2022/03/25 04:18:49;;;;;;;21.45;11.18;;;;;;;4.72;54.50;101314.88;5110984;28;20073;-74
2022/03/25 04:21:15;;;;;;;23.52;11.18;;;;;;;4.57;54.66;101296.97;5110831;28;20031;-74
2022/03/25 04:23:41;;;;;;;25.08;11.57;;;;;;;4.52;54.84;101299.00;5111017;28;20442;-74
2022/03/25 04:26:06;;;;;;;20.38;10.57;;;;;;;4.48;55.02;101302.72;5110698;28;20024;-74
2022/03/25 04:28:32;;;;;;;25.33;11.30;;;;;;;4.46;55.00;101302.78;5109344;28;20414;-74
2022/03/25 04:30:57;;;;;;;30.67;10.38;;;;;;;4.45;55.38;101314.38;5110946;28;20088;-74
2022/03/25 04:33:23;;;;;;;27.48;11.45;;;;;;;4.41;55.94;101309.25;5109770;28;20059;-74
2022/03/25 04:35:48;;;;;;;24.65;11.50;;;;;;;4.43;56.16;101318.03;5110931;28;20027;-74
2022/03/25 04:38:15;;;;;;;26.58;12.38;;;;;;;4.63;55.90;101331.22;5110992;28;20073;-74
2022/03/25 04:40:41;;;;;;;20.90;11.70;;;;;;;4.52;56.33;101314.97;5110944;28;20020;-74
2022/03/25 04:43:07;;;;;;;22.98;11.95;;;;;;;4.52;56.47;101333.56;5110631;28;20519;-74
2022/03/25 04:45:33;;;;;;;22.48;12.27;;;;;;;4.54;56.37;101329.00;5109530;28;20035;-74
2022/03/25 04:47:59;;;;;;;22.20;12.13;;;;;;;4.52;56.34;101334.38;5109938;28;20065;-72
2022/03/25 04:50:25;;;;;;;25.13;12.25;;;;;;;4.59;56.67;101348.25;5110706;28;20081;-72
2022/03/25 04:52:51;;;;;;;20.05;11.35;;;;;;;4.57;56.84;101345.69;5110377;28;20391;-71
2022/03/25 04:55:18;;;;;;;24.13;12.02;;;;;;;4.56;56.62;101332.47;5110390;28;20161;-71
2022/03/25 04:57:43;;;;;;;26.52;12.32;;;;;;;4.51;56.71;101330.03;5110547;28;20398;-71
2022/03/25 05:00:10;;;;;;;22.88;12.20;;;;;;;4.54;56.57;101345.81;5110310;28;20035;-72
2022/03/25 05:02:36;;;;;;;26.40;12.68;;;;;;;4.55;57.10;101336.91;5108754;28;20119;-72
2022/03/25 05:05:02;;;;;;;33.60;14.45;;;;;;;4.52;57.02;101346.81;5110328;28;20106;-72
2022/03/25 05:07:28;;;;;;;41.75;15.90;;;;;;;4.44;57.12;101331.25;5110495;28;20047;-71
2022/03/25 05:09:58;;;;;;;42.35;18.85;;;;;;;4.49;56.90;101346.97;5110630;28;20024;-72
2022/03/25 05:12:23;;;;;;;45.85;18.38;;;;;;;4.49;57.32;101353.13;5110399;28;20032;-71
2022/03/25 05:14:49;;;;;;;41.28;17.15;;;;;;;4.48;57.38;101351.41;5110270;28;20049;-72
2022/03/25 05:17:14;;;;;;;44.08;19.35;;;;;;;4.42;57.45;101342.88;5110342;28;20039;-72
2022/03/25 05:19:40;;;;;;;45.15;19.08;;;;;;;4.53;57.41;101364.47;5110580;28;20035;-72
2022/03/25 05:22:06;;;;;;;41.45;17.95;;;;;;;4.58;57.40;101362.50;5107411;28;20387;-72
2022/03/25 05:24:32;;;;;;;25.80;13.40;;;;;;;4.50;57.04;101343.38;5110210;28;20039;-72
2022/03/25 05:26:59;;;;;;;21.00;11.35;;;;;;;4.56;56.67;101348.41;5110358;28;20035;-72
2022/03/25 05:29:25;;;;;;;23.02;10.75;;;;;;;4.65;56.63;101354.13;5110124;28;20123;-72
2022/03/25 05:31:51;;;;;;;19.58;9.93;;;;;;;4.67;56.45;101344.31;5110442;28;20019;-72
2022/03/25 05:34:17;;;;;;;22.52;10.27;;;;;;;4.81;56.20;101367.56;5110169;28;20016;-72
2022/03/25 05:36:42;;;;;;;31.90;11.43;;;;;;;4.77;56.34;101349.19;5110322;28;20414;-72
2022/03/25 05:39:08;;;;;;;18.17;10.48;;;;;;;4.93;55.64;101369.63;5110332;28;20050;-72
2022/03/25 05:41:33;;;;;;;24.75;11.25;;;;;;;5.02;55.74;101373.63;5110170;28;20040;-72
2022/03/25 05:43:59;;;;;;;23.95;11.35;;;;;;;5.10;55.43;101374.13;5110114;28;20020;-72
2022/03/25 05:46:26;;;;;;;24.33;10.23;;;;;;;5.22;54.83;101371.72;5110795;28;20088;-72
2022/03/25 05:48:51;;;;;;;24.08;11.82;;;;;;;5.39;54.38;101378.91;5108807;28;20032;-72
2022/03/25 05:51:17;;;;;;;21.55;11.30;;;;;;;5.49;53.54;101382.81;5108658;28;20029;-72
2022/03/25 05:53:43;;;;;;;24.05;11.38;;;;;;;5.71;53.04;101386.97;5108352;28;20035;-72
2022/03/25 05:56:10;;;;;;;27.38;11.88;;;;;;;5.79;52.90;101387.44;5109967;28;20543;-72
2022/03/25 05:58:36;;;;;;;24.40;11.43;;;;;;;5.79;52.87;101375.94;5112161;28;20035;-72
2022/03/25 06:01:03;;;;;;;26.15;11.43;;;;;;;5.87;52.96;101377.28;5113454;28;20031;-72
2022/03/25 06:03:30;;;;;;;30.33;12.02;;;;;;;5.95;52.60;101377.78;5112309;28;20548;-72
2022/03/25 06:05:56;;;;;;;31.00;11.82;;;;;;;6.11;52.38;101378.69;5109571;28;20030;-72
2022/03/25 06:08:23;;;;;;;27.83;11.48;;;;;;;6.19;52.58;101372.97;5113518;28;20027;-71
2022/03/25 06:10:49;;;;;;;32.20;11.68;;;;;;;6.23;52.26;101380.69;5113386;28;20027;-71
2022/03/25 06:13:15;;;;;;;30.67;13.40;;;;;;;6.42;52.34;101385.91;5113043;28;20089;-72
2022/03/25 06:15:40;;;;;;;34.90;13.07;;;;;;;6.48;51.89;101375.75;5111943;28;20050;-72
2022/03/25 06:18:05;;;;;;;34.78;12.98;;;;;;;6.64;51.96;101367.78;5111514;28;20016;-72
2022/03/25 06:20:31;;;;;;;34.53;14.00;;;;;;;6.87;51.54;101381.56;5113241;28;20030;-71
2022/03/25 06:22:57;;;;;;;36.83;14.05;;;;;;;7.10;50.99;101395.44;5111743;28;20055;-72
2022/03/25 06:25:23;;;;;;;42.55;13.45;;;;;;;7.21;50.95;101385.00;5112965;27;20383;-72
2022/03/25 06:27:49;;;;;;;36.80;14.48;;;;;;;7.50;50.76;101392.19;5112766;28;20039;-72
2022/03/25 06:30:15;;;;;;;35.55;13.45;;;;;;;7.62;50.48;101379.00;5113064;28;20080;-73
2022/03/25 06:32:42;;;;;;;55.17;15.18;;;;;;;7.98;50.05;101390.16;5106570;28;21356;-72
2022/03/25 06:35:08;;;;;;;48.95;14.80;;;;;;;8.17;49.54;101387.25;5106525;28;20500;-72
2022/03/25 06:37:36;;;;;;;53.95;14.85;;;;;;;8.42;48.89;101382.16;5111212;28;20047;-71
2022/03/25 06:40:01;;;;;;;38.72;14.13;;;;;;;8.77;47.90;101391.50;5109818;28;20031;-72
2022/03/25 06:42:27;;;;;;;29.40;13.38;;;;;;;9.01;47.60;101381.91;5110687;28;20027;-72
2022/03/25 06:44:52;;;;;;;33.80;13.45;;;;;;;9.37;46.61;101371.47;5111115;28;20023;-73
2022/03/25 06:47:17;;;;;;;39.60;13.05;;;;;;;9.74;46.06;101394.81;5111175;28;20046;-72
2022/03/25 06:49:43;;;;;;;35.83;12.77;;;;;;;10.06;45.70;101398.88;5112396;28;20156;-72
2022/03/25 06:52:09;;;;;;;39.00;13.38;;;;;;;10.22;45.05;101385.31;5112306;28;20022;-73
2022/03/25 06:54:35;;;;;;;58.58;13.82;;;;;;;10.54;44.63;101392.78;5111852;28;20039;-73
2022/03/25 06:57:01;;;;;;;47.33;14.40;;;;;;;10.79;44.56;101394.59;5112161;28;20026;-72
2022/03/25 06:59:27;;;;;;;33.10;13.15;;;;;;;11.03;43.61;101382.09;5112055;28;20437;-72
2022/03/25 07:01:53;;;;;;;34.53;13.60;;;;;;;11.29;42.61;101381.88;5111777;28;20027;-72
2022/03/25 07:04:19;;;;;;;51.63;14.60;;;;;;;11.57;42.20;101381.56;5112107;28;20391;-70
2022/03/25 07:06:48;;;;;;;27.55;13.23;;;;;;;11.93;41.69;101393.22;5110731;28;20038;-72
2022/03/25 07:09:14;;;;;;;30.45;13.23;;;;;;;12.14;40.80;101384.34;5110054;28;20404;-72
2022/03/25 07:11:40;;;;;;;30.35;13.55;;;;;;;12.49;39.82;101386.97;5112097;28;20482;-72
2022/03/25 07:14:06;;;;;;;35.47;13.68;;;;;;;12.79;39.74;101387.22;5109300;28;20055;-71
2022/03/25 07:16:32;;;;;;;22.48;12.38;;;;;;;13.06;38.81;101388.59;5110845;28;20468;-71
2022/03/25 07:18:59;;;;;;;25.60;13.38;;;;;;;13.33;38.71;101383.66;5110461;28;20283;-72
2022/03/25 07:21:25;;;;;;;26.50;12.73;;;;;;;13.65;37.63;101391.75;5111800;28;20110;-72
2022/03/25 07:23:51;;;;;;;26.77;11.98;;;;;;;13.99;37.45;101396.00;5111658;28;20111;-71
2022/03/25 07:26:17;;;;;;;23.48;12.70;;;;;;;14.29;37.29;101404.22;5111612;28;20055;-72
2022/03/25 07:28:43;;;;;;;26.92;13.57;;;;;;;14.54;36.82;101386.75;5110167;28;20047;-72
2022/03/25 07:31:08;;;;;;;33.38;12.88;;;;;;;14.86;36.44;101395.56;5111641;28;20038;-72
2022/03/25 07:33:34;;;;;;;23.80;12.45;;;;;;;15.11;35.71;101387.84;5111462;28;20034;-71
2022/03/25 07:36:00;;;;;;;19.90;12.60;;;;;;;15.43;34.75;101401.19;5111681;28;20074;-72
2022/03/25 07:38:27;;;;;;;33.15;13.85;;;;;;;15.60;34.84;101395.09;5110127;28;20479;-72
2022/03/25 07:40:53;;;;;;;27.25;12.73;;;;;;;15.84;34.29;101407.22;5109923;28;20043;-72
2022/03/25 07:43:19;;;;;;;25.58;13.82;;;;;;;16.03;34.13;101408.22;5109951;28;20417;-72
2022/03/25 07:45:45;;;;;;;23.85;12.38;;;;;;;16.25;33.26;101399.81;5110164;28;20042;-71
2022/03/25 07:48:11;;;;;;;22.23;13.30;;;;;;;16.44;33.26;101400.63;5111288;28;20035;-72
2022/03/25 07:50:37;;;;;;;27.48;13.93;;;;;;;16.64;33.10;101401.47;5109905;28;20344;-72
2022/03/25 07:53:02;;;;;;;23.20;12.93;;;;;;;16.84;32.81;101392.25;5111362;28;20081;-72
2022/03/25 07:55:28;;;;;;;23.38;13.52;;;;;;;17.08;32.49;101398.84;5109581;28;20035;-71
2022/03/25 07:57:54;;;;;;;23.75;12.50;;;;;;;17.40;32.10;101395.66;5107043;28;20045;-72
2022/03/25 08:00:19;;;;;;;18.90;12.93;;;;;;;17.81;31.18;101400.56;5109674;28;20032;-72
2022/03/25 08:02:47;;;;;;;20.50;13.27;;;;;;;18.52;30.10;101406.78;5110904;28;20024;-72
2022/03/25 08:05:14;;;;;;;19.00;12.57;;;;;;;19.28;29.28;101397.75;5109506;28;20066;-72
2022/03/25 08:07:52;;;;;;;20.27;12.50;;;;;;;20.24;28.01;101402.53;5109524;28;20110;-72
2022/03/25 08:10:21;;;;;;;19.27;12.43;;;;;;;21.13;26.88;101401.38;5107698;28;20486;-72
2022/03/25 08:12:48;;;;;;;22.27;13.50;;;;;;;22.16;25.96;101379.94;5110487;28;20026;-73
2022/03/25 08:15:13;;;;;;;21.55;13.77;;;;;;;23.37;24.57;101391.31;5109189;28;20407;-72
2022/03/25 08:17:48;;;;;;;24.38;13.40;;;;;;;24.31;23.49;101380.13;5109294;28;20020;-73
2022/03/25 08:20:19;;;;;;;18.63;14.00;;;;;;;25.36;22.12;101388.09;5109072;28;20421;-72
2022/03/25 08:22:45;;;;;;;19.48;13.43;;;;;;;26.06;21.37;101384.94;5105431;27;20032;-73
2022/03/25 08:27:58;;;;;;;;;;;;;;;26.93;20.48;101380.91;5109303;28;20059;-71
2022/03/25 08:30:25;;;;;;;24.25;13.35;;;;;;;27.54;19.84;101365.69;5107430;28;19923;-74
2022/03/25 08:32:51;;;;;;;18.05;12.70;;;;;;;27.86;19.64;101364.66;5107131;28;20533;-72
2022/03/25 08:35:17;;;;;;;29.73;12.90;;;;;;;28.29;18.72;101373.06;5108704;28;20117;-72
2022/03/25 08:37:42;;;;;;;19.38;12.15;;;;;;;28.51;18.74;101369.69;5109006;28;20028;-74
2022/03/25 08:40:09;;;;;;;13.65;11.43;;;;;;;28.84;18.44;101360.25;5108223;28;20152;-74
2022/03/25 08:42:34;;;;;;;16.05;11.70;;;;;;;29.10;17.96;101366.38;5108009;28;20046;-75
2022/03/25 08:44:59;;;;;;;19.58;10.88;;;;;;;29.64;17.76;101368.28;5107637;28;20015;-74
2022/03/25 08:47:25;;;;;;;15.90;11.02;;;;;;;29.88;17.80;101372.81;5108916;28;20039;-72
2022/03/25 08:49:50;;;;;;;21.80;11.98;;;;;;;30.01;17.25;101369.84;5108352;28;20034;-72
2022/03/25 08:52:17;;;;;;;18.80;10.73;;;;;;;30.65;16.70;101374.59;5107295;28;20751;-72
2022/03/25 08:54:42;;;;;;;16.63;10.90;;;;;;;30.70;16.92;101371.94;5106733;28;20028;-72
2022/03/25 08:57:08;;;;;;;21.08;12.02;;;;;;;30.91;16.80;101372.19;5108764;28;20544;-72
2022/03/25 08:59:34;;;;;;;18.83;11.88;;;;;;;30.87;16.70;101368.22;5108753;28;20031;-73
2022/03/25 09:01:59;;;;;;;15.05;11.35;;;;;;;31.72;15.95;101361.75;5108410;28;20090;-72
2022/03/25 09:04:25;;;;;;;14.07;11.27;;;;;;;31.52;16.18;101361.38;5106923;28;20062;-73
2022/03/25 09:06:50;;;;;;;21.60;12.43;;;;;;;31.83;16.21;101358.13;5106886;28;20453;-73
2022/03/25 09:09:16;;;;;;;21.17;12.23;;;;;;;31.83;16.17;101354.50;5108210;28;20023;-73
2022/03/25 09:11:41;;;;;;;17.85;11.68;;;;;;;32.25;15.86;101355.84;5108324;28;20024;-72
2022/03/25 09:14:07;;;;;;;19.52;11.90;;;;;;;32.16;15.62;101366.53;5107598;28;20059;-72
2022/03/25 09:16:33;;;;;;;13.88;11.23;;;;;;;32.05;15.46;101361.88;5107876;28;20454;-73
2022/03/25 09:18:58;;;;;;;18.25;11.82;;;;;;;32.41;15.06;101355.84;5107931;28;20444;-73
2022/03/25 09:21:24;;;;;;;15.57;11.65;;;;;;;32.28;15.15;101356.16;5108026;28;20023;-73
2022/03/25 09:23:49;;;;;;;17.23;12.50;;;;;;;32.35;15.33;101356.91;5106943;28;20551;-73
2022/03/25 09:26:16;;;;;;;18.70;11.85;;;;;;;32.84;14.92;101349.59;5107060;28;20065;-72
2022/03/25 09:28:41;;;;;;;22.90;11.60;;;;;;;32.98;14.94;101350.09;5109401;28;20044;-74
2022/03/25 09:31:07;;;;;;;18.08;11.32;;;;;;;33.43;14.63;101353.53;5109909;28;20016;-73
2022/03/25 09:33:32;;;;;;;19.67;12.30;;;;;;;33.18;14.77;101350.38;5112382;28;20041;-73
2022/03/25 09:35:58;;;;;;;18.02;11.48;;;;;;;32.99;14.72;101349.00;5113645;28;20532;-73
2022/03/25 09:38:23;;;;;;;22.55;12.50;;;;;;;32.80;14.48;101342.00;5113770;28;20024;-73
2022/03/25 09:40:50;;;;;;;18.63;11.40;;;;;;;32.85;14.48;101339.34;5113935;28;20039;-73
2022/03/25 09:43:18;;;;;;;17.25;11.40;;;;;;;32.70;14.51;101351.06;5113551;28;20094;-73
2022/03/25 09:45:44;;;;;;;21.02;12.48;;;;;;;33.35;14.16;101335.31;5113769;28;20099;-75
2022/03/25 09:48:10;;;;;;;19.83;13.57;;;;;;;32.74;14.80;101329.97;5113889;28;20040;-76
2022/03/25 09:50:38;;;;;;;15.50;11.27;;;;;;;32.48;14.56;101337.09;5111389;28;20051;-77
2022/03/25 09:53:04;;;;;;;19.27;10.93;;;;;;;31.64;15.32;101330.78;5112519;28;20122;-74
2022/03/25 09:55:31;;;;;;;15.63;10.77;;;;;;;30.53;16.02;101336.63;5113605;28;20024;-75
2022/03/25 09:57:56;;;;;;;16.27;11.25;;;;;;;30.14;16.43;101323.44;5112058;28;20138;-75
2022/03/25 10:00:22;;;;;;;18.33;11.07;;;;;;;29.33;17.00;101318.66;5113712;28;20114;-75
2022/03/25 10:02:47;;;;;;;15.80;10.98;;;;;;;28.78;17.32;101328.88;5112150;28;20024;-75
2022/03/25 10:05:16;;;;;;;13.68;11.32;;;;;;;27.30;18.46;101307.69;5113398;28;20543;-75
2022/03/25 10:07:49;;;;;;;20.08;11.82;;;;;;;27.26;18.53;101321.09;5112131;28;20019;-75
2022/03/25 10:10:20;;;;;;;15.00;11.35;;;;;;;26.58;18.64;101329.91;5113274;28;20020;-75
2022/03/25 10:12:48;;;;;;;16.00;10.73;;;;;;;26.55;18.73;101311.06;5111759;28;20483;-75
2022/03/25 10:15:26;;;;;;;16.67;11.65;;;;;;;25.94;19.07;101312.31;5111998;28;20027;-75
2022/03/25 10:17:57;;;;;;;23.52;12.45;;;;;;;24.70;20.23;101327.50;5111806;28;20110;-75
2022/03/25 10:20:41;;;;;;;19.00;13.02;;;;;;;24.04;20.93;101317.88;5111801;28;20030;-75
2022/03/25 10:23:06;;;;;;;20.13;14.45;;;;;;;24.35;20.44;101323.84;5110279;28;20084;-76
2022/03/25 10:25:36;;;;;;;18.25;13.48;;;;;;;23.40;21.68;101324.34;5111793;28;20036;-75
2022/03/25 10:28:03;;;;;;;24.02;12.15;;;;;;;23.27;21.91;101327.78;5109041;28;20143;-76
2022/03/25 10:30:40;;;;;;;21.80;12.70;;;;;;;22.98;22.22;101324.22;5111602;28;20031;-76
2022/03/25 10:33:19;;;;;;;17.80;11.30;;;;;;;22.62;22.39;101324.16;5111627;28;20479;-75
2022/03/25 10:35:58;;;;;;;21.50;12.10;;;;;;;22.64;22.40;101316.63;5111749;28;20446;-76
2022/03/25 10:38:25;;;;;;;20.00;11.57;;;;;;;22.14;22.78;101324.59;5112916;28;20383;-75
2022/03/25 10:40:56;;;;;;;18.52;11.43;;;;;;;21.87;22.99;101319.72;5112955;28;20054;-75
2022/03/25 10:43:24;;;;;;;17.40;10.93;;;;;;;21.41;23.72;101309.81;5112545;28;20035;-75
2022/03/25 10:45:50;;;;;;;22.15;11.88;;;;;;;21.44;23.56;101314.91;5111988;28;20035;-76
2022/03/25 10:48:18;;;;;;;21.25;12.00;;;;;;;21.11;24.10;101305.19;5112448;28;20028;-76
2022/03/25 10:50:56;;;;;;;25.30;12.18;;;;;;;20.90;24.30;101310.38;5112743;28;20028;-76
2022/03/25 10:53:23;;;;;;;19.92;11.98;;;;;;;20.75;24.48;101313.00;5112496;28;20023;-76
2022/03/25 10:55:56;;;;;;;17.25;11.88;;;;;;;20.69;24.23;101310.09;5112330;28;20098;-76
2022/03/25 10:58:21;;;;;;;17.40;11.90;;;;;;;20.44;24.30;101297.59;5112399;28;20098;-75
2022/03/25 11:00:48;;;;;;;23.15;12.73;;;;;;;20.19;24.81;101294.06;5112401;28;20103;-76
2022/03/25 11:03:14;;;;;;;22.10;11.52;;;;;;;20.10;25.51;101306.81;5108873;28;20497;-75
2022/03/25 11:05:40;;;;;;;23.67;11.95;;;;;;;19.99;25.53;101292.69;5111435;28;20421;-76
2022/03/25 11:08:06;;;;;;;24.85;11.68;;;;;;;20.00;25.43;101294.41;5112409;28;20057;-75
2022/03/25 11:10:32;;;;;;;20.40;10.68;;;;;;;19.74;25.67;101296.44;5111122;28;20486;-75
2022/03/25 11:13:01;;;;;;;17.92;11.75;;;;;;;19.43;26.17;101279.94;5112408;28;20383;-77
2022/03/25 11:15:28;;;;;;;22.70;11.32;;;;;;;19.58;25.78;101297.28;5110012;27;20032;-76
2022/03/25 11:17:54;;;;;;;20.45;11.07;;;;;;;19.51;25.88;101288.09;5106139;28;20479;-76